| time (UTC) | temp C | wind direction | speed KPH | gust KPH | rain 1hr cm | rain 24hr cm | rain mn cm | humidity % | barometer mb |
| 20260505183018 | 21 | 5 | 0.0 | 0.0 | 0.00 | 0.00 | 0.00 | 51 | 1008.6 |
| 20260505181510 | 21 | 22 | 0.0 | 6.4 | 0.00 | 0.00 | 0.00 | 53 | 1008.8 |
| 20260505180009 | 20 | 355 | 1.6 | 9.7 | 0.00 | 0.00 | 0.00 | 56 | 1008.9 |
| 20260505174504 | 19 | 63 | 1.6 | 6.4 | 0.00 | 0.00 | 0.00 | 57 | 1009.0 |
| 20260505173002 | 18 | 82 | 1.6 | 8.0 | 0.00 | 0.00 | 0.00 | 57 | 1009.1 |
| 20260505171559 | 18 | 32 | 0.0 | 6.4 | 0.00 | 0.00 | 0.00 | 57 | 1009.2 |
| 20260505170056 | 17 | 63 | 0.0 | 6.4 | 0.00 | 0.00 | 0.00 | 59 | 1009.3 |
| 20260505164553 | 17 | 355 | 1.6 | 8.0 | 0.00 | 0.00 | 0.00 | 61 | 1009.3 |
| 20260505163053 | 16 | 5 | 0.0 | 8.0 | 0.00 | 0.00 | 0.00 | 60 | 1009.3 |
| 20260505161558 | 16 | 334 | 3.2 | 8.0 | 0.00 | 0.00 | 0.00 | 59 | 1009.3 |
| 20260505153043 | 15 | 299 | 0.0 | 0.0 | 0.00 | 0.00 | 0.00 | 62 | 1009.3 |
| 20260505151539 | 15 | 338 | 0.0 | 3.2 | 0.00 | 0.00 | 0.00 | 61 | 1009.3 |
| 20260505124515 | 6 | 17 | 0.0 | 0.0 | 0.00 | 0.00 | 0.00 | 85 | 1008.2 |
| 20260505123013 | 6 | 17 | 0.0 | 0.0 | 0.00 | 0.00 | 0.00 | 86 | 1008.1 |
| 20260505121512 | 6 | 17 | 0.0 | 0.0 | 0.00 | 0.00 | 0.00 | 85 | 1008.0 |
| 20260505120015 | 6 | 17 | 0.0 | 0.0 | 0.00 | 0.00 | 0.00 | 85 | 1007.7 |
| 20260505114507 | 6 | 17 | 0.0 | 0.0 | 0.00 | 0.00 | 0.00 | 86 | 1007.6 |
| 20260505113005 | 7 | 17 | 0.0 | 0.0 | 0.00 | 0.00 | 0.00 | 85 | 1007.7 |
| 20260505111504 | 7 | 17 | 0.0 | 0.0 | 0.00 | 0.00 | 0.00 | 84 | 1007.5 |
| 20260505101555 | 7 | 250 | 0.0 | 0.0 | 0.00 | 0.00 | 0.00 | 82 | 1007.1 |
| 20260505100054 | 7 | 250 | 0.0 | 0.0 | 0.00 | 0.00 | 0.00 | 81 | 1006.9 |
| 20260505094551 | 8 | 250 | 0.0 | 0.0 | 0.00 | 0.00 | 0.00 | 81 | 1006.8 |
| 20260505093049 | 8 | 250 | 0.0 | 0.0 | 0.00 | 0.00 | 0.00 | 80 | 1006.7 |
| 20260505091605 | 8 | 250 | 0.0 | 0.0 | 0.00 | 0.00 | 0.00 | 79 | 1006.7 |
| 20260505090047 | 9 | 250 | 0.0 | 0.0 | 0.00 | 0.00 | 0.00 | 79 | 1006.8 |
| 20260505084544 | 8 | 250 | 0.0 | 0.0 | 0.00 | 0.00 | 0.00 | 79 | 1006.8 |
| 20260505083042 | 9 | 250 | 0.0 | 0.0 | 0.00 | 0.00 | 0.00 | 79 | 1006.7 |
| 20260505081545 | 9 | 250 | 0.0 | 0.0 | 0.00 | 0.00 | 0.00 | 77 | 1006.7 |
| 20260505080037 | 9 | 250 | 0.0 | 0.0 | 0.00 | 0.00 | 0.00 | 75 | 1006.7 |
| 20260505074536 | 10 | 250 | 0.0 | 0.0 | 0.00 | 0.00 | 0.00 | 75 | 1006.7 |
| 20260505073034 | 10 | 250 | 0.0 | 0.0 | 0.00 | 0.00 | 0.00 | 74 | 1006.6 |
| 20260505071528 | 10 | 250 | 0.0 | 0.0 | 0.00 | 0.00 | 0.00 | 72 | 1006.5 |
| 20260505070025 | 11 | 250 | 0.0 | 0.0 | 0.00 | 0.00 | 0.00 | 71 | 1006.3 |
| 20260505064525 | 11 | 250 | 0.0 | 0.0 | 0.00 | 0.00 | 0.00 | 70 | 1006.1 |
| 20260505063024 | 10 | 250 | 0.0 | 0.0 | 0.00 | 0.00 | 0.00 | 71 | 1006.0 |
| 20260505061527 | 11 | 250 | 0.0 | 0.0 | 0.00 | 0.00 | 0.00 | 72 | 1005.9 |
| 20260505060023 | 11 | 250 | 0.0 | 0.0 | 0.00 | 0.00 | 0.00 | 70 | 1005.8 |
| 20260505054523 | 11 | 250 | 0.0 | 0.0 | 0.00 | 0.00 | 0.00 | 68 | 1005.8 |
| 20260505053022 | 12 | 248 | 0.0 | 0.0 | 0.00 | 0.00 | 0.00 | 63 | 1005.8 |
| 20260505051538 | 13 | 244 | 0.0 | 0.0 | 0.00 | 0.00 | 0.00 | 61 | 1005.9 |
| 20260505041522 | 16 | 351 | 0.0 | 0.0 | 0.00 | 0.00 | 0.00 | 48 | 1005.6 |
| 20260505040021 | 17 | 351 | 0.0 | 0.0 | 0.00 | 0.00 | 0.00 | 45 | 1005.5 |
| 20260505034518 | 17 | 40 | 0.0 | 9.7 | 0.00 | 0.00 | 0.00 | 44 | 1005.3 |
| 20260505033019 | 17 | 34 | 0.0 | 4.8 | 0.00 | 0.00 | 0.00 | 44 | 1005.0 |
| 20260505031518 | 18 | 5 | 4.8 | 9.7 | 0.00 | 0.00 | 0.00 | 42 | 1004.8 |
| 20260505030018 | 20 | 327 | 0.0 | 4.8 | 0.00 | 0.00 | 0.00 | 41 | 1004.6 |
| 20260505024517 | 21 | 286 | 0.0 | 1.6 | 0.00 | 0.00 | 0.00 | 37 | 1004.5 |
| 20260505023017 | 22 | 300 | 0.0 | 9.7 | 0.00 | 0.00 | 0.00 | 36 | 1004.4 |
| 20260505021516 | 23 | 288 | 0.0 | 12.9 | 0.00 | 0.00 | 0.00 | 35 | 1004.3 |
| 20260505020015 | 23 | 309 | 3.2 | 17.7 | 0.00 | 0.00 | 0.00 | 30 | 1004.2 |
| 20260505014615 | 23 | 327 | 1.6 | 24.1 | 0.00 | 0.00 | 0.00 | 28 | 1004.1 |
| 20260505013014 | 24 | 319 | 11.3 | 27.4 | 0.00 | 0.00 | 0.00 | 27 | 1004.1 |
| 20260505011516 | 24 | 310 | 17.7 | 27.4 | 0.00 | 0.00 | 0.00 | 25 | 1004.1 |
| 20260505010012 | 25 | 329 | 17.7 | 24.1 | 0.00 | 0.00 | 0.00 | 25 | 1004.1 |
| 20260505004512 | 25 | 329 | 16.1 | 29.0 | 0.00 | 0.00 | 0.00 | 25 | 1004.2 |
| 20260505003019 | 25 | 303 | 14.5 | 25.7 | 0.00 | 0.00 | 0.00 | 24 | 1004.2 |
| 20260505001511 | 25 | 325 | 14.5 | 30.6 | 0.00 | 0.00 | 0.00 | 25 | 1004.2 |
| 20260505000010 | 25 | 355 | 17.7 | 30.6 | 0.00 | 0.00 | 0.00 | 26 | 1004.1 |
| 20260504234509 | 25 | 325 | 17.7 | 29.0 | 0.00 | 0.00 | 0.00 | 27 | 1004.1 |
| 20260504233009 | 25 | 323 | 17.7 | 29.0 | 0.00 | 0.00 | 0.00 | 25 | 1004.1 |
| 20260504231506 | 25 | 311 | 17.7 | 30.6 | 0.00 | 0.00 | 0.00 | 25 | 1004.3 |
| 20260504230005 | 25 | 307 | 12.9 | 29.0 | 0.00 | 0.00 | 0.00 | 27 | 1004.3 |
| 20260504224601 | 25 | 321 | 17.7 | 29.0 | 0.00 | 0.00 | 0.00 | 25 | 1004.4 |
| 20260504223057 | 25 | 321 | 16.1 | 33.8 | 0.00 | 0.00 | 0.00 | 25 | 1004.6 |
| 20260504221554 | 25 | 292 | 12.9 | 33.8 | 0.00 | 0.00 | 0.00 | 23 | 1004.7 |
| 20260504220053 | 26 | 283 | 9.7 | 32.2 | 0.00 | 0.00 | 0.00 | 25 | 1004.7 |
| 20260504214651 | 26 | 301 | 20.9 | 38.6 | 0.00 | 0.00 | 0.00 | 21 | 1004.8 |
| 20260504213052 | 26 | 329 | 19.3 | 32.2 | 0.00 | 0.00 | 0.00 | 21 | 1005.0 |
| 20260504211548 | 26 | 333 | 25.7 | 40.2 | 0.00 | 0.00 | 0.00 | 23 | 1005.0 |
| 20260504210059 | 26 | 341 | 19.3 | 30.6 | 0.00 | 0.00 | 0.00 | 25 | 1005.0 |
| 20260504204548 | 26 | 321 | 14.5 | 25.7 | 0.00 | 0.00 | 0.00 | 29 | 1005.2 |
| 20260504203053 | 25 | 300 | 9.7 | 24.1 | 0.00 | 0.00 | 0.00 | 33 | 1005.2 |
| 20260504201537 | 25 | 292 | 12.9 | 25.7 | 0.00 | 0.00 | 0.00 | 33 | 1005.4 |
| 20260504200034 | 25 | 315 | 14.5 | 22.5 | 0.00 | 0.00 | 0.00 | 34 | 1005.6 |
| 20260504194533 | 24 | 329 | 12.9 | 20.9 | 0.00 | 0.00 | 0.00 | 41 | 1005.6 |
| 20260504193026 | 23 | 320 | 1.6 | 19.3 | 0.00 | 0.00 | 0.00 | 45 | 1005.8 |
| 20260504191524 | 22 | 296 | 0.0 | 12.9 | 0.00 | 0.00 | 0.00 | 47 | 1006.1 |
| 20260504190018 | 22 | 260 | 0.0 | 4.8 | 0.00 | 0.00 | 0.00 | 47 | 1006.2 |
| 20260504184518 | 21 | 325 | 0.0 | 9.7 | 0.00 | 0.00 | 0.00 | 46 | 1006.4 |